Regan, North Dakota
Current Conditions -  °F | °C
As of 12:52 PM on Wednesday 26 Nov 2014 (Local Time) from KBIS Reporting Station
Overcast Overcast  
Wind Chill:   Ceiling: 7500
Heat Index: 11°   Visibility: 8mi
Dew Point:   Wind: 5mph
Humidity: 70%   Direction: 60°ENE
Pressure: 30.39"   Gusts: NA
Location:  47.16°N, 100.53°W
Report Text: KBIS 261852Z 06004KT 8SM OVC075 M12/M16 A3039 RMK AO2 SNB05E22 SLP329 P0000 T11171161
Loading
Personal Weather Stations






























Interactive Weather Map New forecast layout! Learn more

10-Day Weather Forecast

Advertisements
Track Severe Weather on mobile